createdAt,value
2022-10-02T00:02:03.856Z,12.26
2022-10-02T00:04:38.238Z,12.26
2022-10-02T00:07:07.326Z,12.29
2022-10-02T00:09:45.519Z,12.30
2022-10-02T00:12:17.063Z,12.30
2022-10-02T00:14:46.651Z,12.25
2022-10-02T00:17:28.165Z,12.26
2022-10-02T00:19:56.203Z,12.29
2022-10-02T00:22:47.659Z,12.32
2022-10-02T00:25:44.878Z,12.33
2022-10-02T00:28:30.988Z,12.34
2022-10-02T00:31:27.828Z,12.37
2022-10-02T00:34:15.161Z,12.31
2022-10-02T00:37:01.417Z,12.28
2022-10-02T00:39:43.906Z,12.27
2022-10-02T00:42:38.721Z,12.24
2022-10-02T00:45:20.766Z,12.22
2022-10-02T00:48:18.232Z,12.23
2022-10-02T00:51:22.989Z,12.21
2022-10-02T00:53:49.828Z,12.15
2022-10-02T00:56:38.672Z,12.10
2022-10-02T00:59:14.900Z,12.06
2022-10-02T01:02:01.672Z,12.01
2022-10-02T01:04:32.670Z,11.97
2022-10-02T01:07:00.604Z,11.95
2022-10-02T01:09:27.913Z,11.96
2022-10-02T01:11:55.526Z,11.88
2022-10-02T01:14:32.737Z,11.95
2022-10-02T01:17:00.505Z,11.97
2022-10-02T01:19:42.275Z,11.90
2022-10-02T01:22:21.390Z,11.92
2022-10-02T01:24:59.557Z,11.89
2022-10-02T01:27:27.021Z,11.88
2022-10-02T01:30:06.190Z,11.87
2022-10-02T01:32:35.364Z,11.85
2022-10-02T01:35:03.143Z,11.86
2022-10-02T01:37:32.814Z,11.90
2022-10-02T01:40:07.235Z,11.89
2022-10-02T01:42:34.867Z,11.87
2022-10-02T01:45:04.547Z,11.86
2022-10-02T01:47:41.767Z,11.83
2022-10-02T01:50:14.627Z,11.85
2022-10-02T01:53:06.506Z,11.81
2022-10-02T01:56:03.519Z,11.74
2022-10-02T01:58:52.509Z,11.74
2022-10-02T02:01:25.473Z,11.73
2022-10-02T02:03:55.446Z,11.72
2022-10-02T02:06:32.473Z,11.76
2022-10-02T02:09:28.145Z,11.71
2022-10-02T02:12:03.480Z,11.68
2022-10-02T02:14:35.431Z,11.77
2022-10-02T02:17:14.780Z,11.76
2022-10-02T02:20:01.405Z,11.81
2022-10-02T02:22:31.531Z,11.85
2022-10-02T02:25:10.270Z,11.86
2022-10-02T02:27:41.502Z,11.84
2022-10-02T02:30:14.510Z,11.81
2022-10-02T02:32:50.214Z,11.81
2022-10-02T02:35:20.212Z,11.77
2022-10-02T02:37:51.595Z,11.76
2022-10-02T02:40:24.501Z,11.77
2022-10-02T02:42:59.848Z,11.75
2022-10-02T02:45:39.551Z,11.76
2022-10-02T02:48:12.333Z,11.79
2022-10-02T02:50:44.389Z,11.76
2022-10-02T02:53:17.727Z,11.75
2022-10-02T02:55:53.373Z,11.77
2022-10-02T02:58:29.287Z,11.78
2022-10-02T03:00:56.484Z,11.82
2022-10-02T03:03:23.878Z,11.88
2022-10-02T03:05:57.322Z,11.88
2022-10-02T03:08:28.299Z,11.87
2022-10-02T03:11:05.872Z,11.86
2022-10-02T03:13:50.811Z,11.85
2022-10-02T03:16:17.917Z,11.84
2022-10-02T03:19:05.495Z,11.84
2022-10-02T03:21:39.477Z,11.80
2022-10-02T03:24:19.010Z,11.82
2022-10-02T03:26:54.119Z,11.82
2022-10-02T03:29:29.435Z,11.83
2022-10-02T03:31:57.009Z,11.85
2022-10-02T03:34:24.516Z,11.84
2022-10-02T03:36:52.041Z,11.84
2022-10-02T03:39:26.439Z,11.86
2022-10-02T03:41:54.390Z,11.90
2022-10-02T03:44:25.466Z,11.91
2022-10-02T03:46:52.608Z,11.90
2022-10-02T03:49:19.684Z,11.93
2022-10-02T03:51:46.833Z,11.97
2022-10-02T03:54:19.755Z,11.95
2022-10-02T03:56:56.745Z,12.02
2022-10-02T03:59:48.021Z,11.93
2022-10-02T04:02:44.840Z,11.97
2022-10-02T04:05:30.559Z,11.95
2022-10-02T04:08:11.323Z,11.87
2022-10-02T04:11:03.168Z,11.85
2022-10-02T04:13:39.911Z,11.83
2022-10-02T04:16:29.422Z,11.80
2022-10-02T04:19:22.494Z,11.81
2022-10-02T04:22:10.140Z,11.77
2022-10-02T04:24:44.574Z,11.72
2022-10-02T04:27:18.926Z,11.68
2022-10-02T04:29:58.078Z,11.69
2022-10-02T04:32:31.264Z,11.72
2022-10-02T04:34:59.057Z,11.67
2022-10-02T04:37:34.852Z,11.65
2022-10-02T04:40:20.965Z,11.62
2022-10-02T04:43:04.415Z,11.58
2022-10-02T04:46:02.332Z,11.55
2022-10-02T04:48:47.667Z,11.59
2022-10-02T04:51:33.183Z,11.58
2022-10-02T04:54:37.172Z,11.55
2022-10-02T04:57:25.715Z,11.54
2022-10-02T05:00:01.460Z,11.49
2022-10-02T05:02:49.431Z,11.49
2022-10-02T05:05:25.432Z,11.52
2022-10-02T05:08:16.554Z,11.52
2022-10-02T05:11:05.126Z,11.54
2022-10-02T05:13:32.560Z,11.51
2022-10-02T05:16:38.647Z,11.58
2022-10-02T05:19:28.724Z,11.63
2022-10-02T05:22:14.914Z,11.63
2022-10-02T05:24:59.977Z,11.66
2022-10-02T05:27:37.230Z,11.67
2022-10-02T05:30:13.414Z,11.71
2022-10-02T05:32:46.629Z,11.74
2022-10-02T05:35:16.669Z,11.75
2022-10-02T05:37:58.751Z,11.78
2022-10-02T05:40:55.839Z,11.76
2022-10-02T05:43:33.336Z,11.73
2022-10-02T05:46:08.416Z,11.73
2022-10-02T05:48:46.663Z,11.70
2022-10-02T05:51:23.092Z,11.64
2022-10-02T05:53:57.988Z,11.66
2022-10-02T05:56:35.643Z,11.67
2022-10-02T05:59:09.542Z,11.68
2022-10-02T06:01:42.006Z,11.63
2022-10-02T06:04:37.306Z,11.65
2022-10-02T06:07:08.783Z,11.66
2022-10-02T06:09:47.723Z,11.71
2022-10-02T06:12:26.466Z,11.70
2022-10-02T06:15:08.302Z,11.72
2022-10-02T06:17:45.533Z,11.66
2022-10-02T06:20:32.547Z,11.71
2022-10-02T06:23:14.348Z,11.76
2022-10-02T06:25:49.653Z,11.79
2022-10-02T06:28:43.949Z,11.85
2022-10-02T06:31:22.253Z,11.83
2022-10-02T06:33:53.219Z,11.83
2022-10-02T06:36:42.470Z,11.83
2022-10-02T06:39:27.577Z,11.88
2022-10-02T06:42:08.505Z,11.92
2022-10-02T06:44:49.528Z,11.94
2022-10-02T06:47:39.051Z,12.00
2022-10-02T06:50:19.298Z,11.99
2022-10-02T06:52:55.363Z,12.05
2022-10-02T06:55:48.760Z,12.09
2022-10-02T06:58:30.943Z,12.15
2022-10-02T07:01:07.284Z,12.15
2022-10-02T07:03:58.783Z,12.23
2022-10-02T07:06:40.197Z,12.33
2022-10-02T07:09:38.446Z,12.39
2022-10-02T07:12:20.540Z,12.37
2022-10-02T07:15:10.036Z,12.39
2022-10-02T07:18:25.245Z,12.48
2022-10-02T07:21:27.140Z,12.40
2022-10-02T07:24:12.428Z,12.47
2022-10-02T07:27:02.921Z,12.48
2022-10-02T07:29:41.843Z,12.58
2022-10-02T07:32:10.892Z,12.56
2022-10-02T07:35:22.663Z,12.61
2022-10-02T07:38:08.300Z,12.65
2022-10-02T07:41:00.212Z,12.69
2022-10-02T07:43:36.018Z,12.68
2022-10-02T07:46:26.979Z,12.78
2022-10-02T07:48:59.416Z,12.81
2022-10-02T07:52:04.306Z,12.89
2022-10-02T07:54:47.813Z,12.94
2022-10-02T07:57:38.516Z,13.01
2022-10-02T08:00:17.265Z,13.03
2022-10-02T08:03:02.667Z,13.12
2022-10-02T08:05:34.758Z,13.14
2022-10-02T08:08:35.326Z,13.19
2022-10-02T08:11:39.407Z,13.22
2022-10-02T08:14:22.928Z,13.29
2022-10-02T08:16:53.458Z,13.35
2022-10-02T08:19:29.964Z,13.34
2022-10-02T08:22:11.421Z,13.46
2022-10-02T08:24:45.677Z,13.51
2022-10-02T08:27:24.918Z,13.52
2022-10-02T08:30:03.943Z,13.48
2022-10-02T08:32:34.905Z,13.60
2022-10-02T08:35:12.010Z,13.63
2022-10-02T08:37:59.872Z,13.67
2022-10-02T08:40:39.617Z,13.77
2022-10-02T08:43:25.056Z,13.85
2022-10-02T08:46:19.796Z,13.99
2022-10-02T08:49:21.951Z,13.97
2022-10-02T08:52:25.835Z,14.04
2022-10-02T08:55:23.502Z,14.13
2022-10-02T08:58:38.826Z,14.16
2022-10-02T09:01:21.117Z,14.17
2022-10-02T09:04:23.827Z,14.29
2022-10-02T09:07:12.181Z,14.35
2022-10-02T09:10:01.484Z,14.30
2022-10-02T09:13:12.486Z,14.48
2022-10-02T09:15:47.607Z,14.62
2022-10-02T09:18:25.216Z,14.71
2022-10-02T09:21:11.729Z,14.71
2022-10-02T09:24:17.475Z,14.76
2022-10-02T09:26:53.814Z,14.74
2022-10-02T09:29:42.510Z,14.78
2022-10-02T09:32:12.187Z,14.83
2022-10-02T09:34:52.533Z,14.80
2022-10-02T09:37:35.225Z,14.81
2022-10-02T09:40:40.769Z,14.87
2022-10-02T09:43:34.879Z,14.94
2022-10-02T09:46:22.073Z,15.06
2022-10-02T09:49:32.421Z,15.11
2022-10-02T09:52:02.442Z,15.12
2022-10-02T09:55:01.265Z,15.22
2022-10-02T09:57:47.631Z,15.32
2022-10-02T10:01:05.774Z,15.41
2022-10-02T10:04:12.658Z,15.47
2022-10-02T10:06:54.360Z,15.44
2022-10-02T10:10:00.294Z,15.48
2022-10-02T10:12:48.140Z,15.64
2022-10-02T10:15:33.786Z,15.68
2022-10-02T10:18:12.643Z,15.88
2022-10-02T10:21:14.518Z,16.03
2022-10-02T10:24:09.330Z,16.00
2022-10-02T10:26:59.554Z,15.94
2022-10-02T10:29:38.887Z,16.03
2022-10-02T10:32:38.769Z,15.91
2022-10-02T10:35:33.405Z,15.95
2022-10-02T10:38:28.124Z,15.83
2022-10-02T10:41:16.137Z,15.79
2022-10-02T10:44:22.086Z,15.75
2022-10-02T10:47:08.410Z,15.62
2022-10-02T10:49:43.971Z,15.55
2022-10-02T10:52:41.771Z,15.46
2022-10-02T10:55:32.521Z,15.42
2022-10-02T10:58:21.141Z,15.38
2022-10-02T11:01:04.049Z,15.40
2022-10-02T11:04:03.218Z,15.38
2022-10-02T11:06:57.316Z,15.41
2022-10-02T11:09:32.435Z,15.38
2022-10-02T11:12:26.798Z,15.29
2022-10-02T11:15:25.962Z,15.26
2022-10-02T11:18:15.110Z,15.35
2022-10-02T11:21:10.519Z,15.30
2022-10-02T11:24:02.224Z,15.42
2022-10-02T11:27:06.345Z,15.41
2022-10-02T11:29:57.024Z,15.47
2022-10-02T11:32:29.679Z,15.53
2022-10-02T11:35:19.535Z,15.44
2022-10-02T11:38:06.563Z,15.56
2022-10-02T11:40:44.904Z,15.61
2022-10-02T11:43:25.663Z,15.62
2022-10-02T11:46:25.545Z,15.50
2022-10-02T11:49:26.394Z,15.59
2022-10-02T11:52:05.849Z,15.65
2022-10-02T11:54:48.495Z,15.71
2022-10-02T11:57:45.731Z,15.91
2022-10-02T12:00:55.541Z,15.91
2022-10-02T12:03:48.624Z,15.87
2022-10-02T12:06:44.388Z,15.88
2022-10-02T12:09:29.928Z,15.94
2022-10-02T12:12:17.012Z,15.90
2022-10-02T12:15:25.525Z,15.96
2022-10-02T12:18:05.993Z,15.99
2022-10-02T12:21:13.117Z,15.87
2022-10-02T12:24:26.597Z,15.80
2022-10-02T12:27:38.247Z,15.88
2022-10-02T12:30:12.195Z,15.80
2022-10-02T12:33:08.146Z,15.79
2022-10-02T12:35:40.011Z,15.87
2022-10-02T12:38:21.667Z,15.89
2022-10-02T12:41:03.431Z,15.98
2022-10-02T12:43:59.440Z,16.02
2022-10-02T12:46:47.678Z,16.08
2022-10-02T12:49:52.376Z,16.23
2022-10-02T12:52:31.843Z,16.37
2022-10-02T12:55:04.857Z,16.42
2022-10-02T12:57:53.397Z,16.53
2022-10-02T13:00:30.911Z,16.52
2022-10-02T13:03:05.548Z,16.47
2022-10-02T13:05:47.706Z,16.41
2022-10-02T13:08:18.214Z,16.24
2022-10-02T13:11:21.119Z,16.24
2022-10-02T13:14:17.960Z,16.37
2022-10-02T13:16:45.030Z,16.42
2022-10-02T13:19:39.865Z,16.27
2022-10-02T13:22:46.976Z,16.08
2022-10-02T13:25:39.623Z,15.92
2022-10-02T13:28:38.671Z,15.66
2022-10-02T13:31:22.362Z,15.55
2022-10-02T13:34:13.984Z,15.51
2022-10-02T13:37:10.107Z,15.67
2022-10-02T13:39:42.716Z,15.58
2022-10-02T13:42:38.209Z,15.48
2022-10-02T13:45:23.491Z,15.38
2022-10-02T13:47:50.311Z,15.28
2022-10-02T13:50:22.480Z,15.39
2022-10-02T13:53:07.414Z,15.63
2022-10-02T13:55:44.484Z,15.66
2022-10-02T13:58:36.311Z,15.65
2022-10-02T14:01:25.160Z,15.66
2022-10-02T14:03:55.121Z,15.65
2022-10-02T14:06:31.999Z,15.78
2022-10-02T14:09:16.857Z,15.85
2022-10-02T14:11:56.327Z,16.10
2022-10-02T14:14:36.351Z,16.34
2022-10-02T14:17:14.047Z,16.34
2022-10-02T14:19:51.584Z,16.40
2022-10-02T14:22:43.826Z,16.21
2022-10-02T14:25:46.688Z,16.05
2022-10-02T14:28:19.759Z,15.90
2022-10-02T14:31:15.560Z,15.73
2022-10-02T14:34:33.262Z,15.51
2022-10-02T14:37:18.589Z,15.41
2022-10-02T14:39:45.671Z,15.29
2022-10-02T14:42:15.307Z,15.29
2022-10-02T14:45:21.661Z,15.38
2022-10-02T14:48:13.352Z,15.39
2022-10-02T14:51:03.909Z,15.64
2022-10-02T14:53:59.073Z,15.76
2022-10-02T14:56:59.692Z,15.86
2022-10-02T15:00:02.101Z,15.83
2022-10-02T15:02:50.620Z,15.76
2022-10-02T15:05:45.175Z,15.79
2022-10-02T15:08:16.665Z,15.75
2022-10-02T15:10:45.966Z,15.72
2022-10-02T15:13:34.751Z,15.63
2022-10-02T15:16:44.863Z,15.75
2022-10-02T15:19:20.558Z,15.67
2022-10-02T15:22:14.663Z,15.62
2022-10-02T15:24:56.512Z,15.65
2022-10-02T15:27:29.300Z,15.67
2022-10-02T15:30:17.734Z,15.66
2022-10-02T15:32:51.222Z,15.62
2022-10-02T15:35:39.078Z,15.62
2022-10-02T15:38:11.837Z,15.51
2022-10-02T15:40:47.087Z,15.52
2022-10-02T15:43:16.892Z,15.55
2022-10-02T15:45:57.468Z,15.52
2022-10-02T15:48:36.643Z,15.46
2022-10-02T15:51:29.665Z,15.46
2022-10-02T15:54:15.752Z,15.45
2022-10-02T15:56:54.680Z,15.41
2022-10-02T15:59:59.533Z,15.41
2022-10-02T16:02:35.555Z,15.38
2022-10-02T16:05:15.189Z,15.34
2022-10-02T16:08:16.227Z,15.27
2022-10-02T16:11:05.956Z,15.19
2022-10-02T16:13:59.241Z,15.21
2022-10-02T16:16:41.767Z,15.23
2022-10-02T16:19:37.371Z,15.27
2022-10-02T16:22:29.899Z,15.38
2022-10-02T16:25:27.742Z,15.73
2022-10-02T16:28:20.604Z,16.07
2022-10-02T16:30:50.599Z,16.10
2022-10-02T16:33:25.851Z,16.11
2022-10-02T16:36:08.253Z,15.88
2022-10-02T16:39:14.521Z,15.89
2022-10-02T16:41:54.132Z,15.74
2022-10-02T16:44:50.060Z,15.87
2022-10-02T16:47:36.175Z,15.49
2022-10-02T16:50:15.274Z,15.35
2022-10-02T16:53:20.966Z,15.01
2022-10-02T16:55:58.547Z,14.83
2022-10-02T16:58:32.999Z,14.53
2022-10-02T17:01:13.835Z,14.30
2022-10-02T17:03:45.184Z,14.20
2022-10-02T17:06:28.756Z,13.96
2022-10-02T17:09:18.897Z,13.87
2022-10-02T17:12:12.989Z,13.70
2022-10-02T17:14:55.540Z,13.65
2022-10-02T17:17:59.514Z,13.52
2022-10-02T17:20:32.077Z,13.40
2022-10-02T17:23:28.189Z,13.35
2022-10-02T17:26:35.822Z,13.22
2022-10-02T17:29:27.752Z,13.19
2022-10-02T17:31:57.588Z,13.15
2022-10-02T17:34:49.062Z,13.10
2022-10-02T17:37:16.037Z,13.08
2022-10-02T17:39:52.282Z,13.02
2022-10-02T17:42:56.966Z,12.97
2022-10-02T17:45:26.410Z,12.98
2022-10-02T17:48:21.331Z,12.95
2022-10-02T17:51:51.168Z,12.91
2022-10-02T17:54:36.885Z,12.86
2022-10-02T17:57:36.305Z,12.80
2022-10-02T18:00:22.340Z,12.73
2022-10-02T18:03:09.964Z,12.64
2022-10-02T18:05:43.628Z,12.51
2022-10-02T18:08:30.709Z,12.58
2022-10-02T18:11:21.420Z,12.58
2022-10-02T18:13:59.611Z,12.51
2022-10-02T18:16:50.693Z,12.49
2022-10-02T18:19:30.124Z,12.45
2022-10-02T18:22:19.153Z,12.45
2022-10-02T18:25:12.282Z,12.38
2022-10-02T18:28:10.457Z,12.34
2022-10-02T18:30:59.288Z,12.27
2022-10-02T18:33:38.404Z,12.14
2022-10-02T18:36:18.199Z,12.14
2022-10-02T18:38:52.516Z,12.03
2022-10-02T18:41:41.151Z,12.00
2022-10-02T18:44:34.237Z,11.98
2022-10-02T18:47:07.174Z,11.93
2022-10-02T18:49:49.087Z,11.86
2022-10-02T18:52:45.559Z,11.87
2022-10-02T18:55:40.201Z,11.81
2022-10-02T18:58:22.633Z,11.71
2022-10-02T19:01:13.783Z,11.68
2022-10-02T19:03:55.819Z,11.65
2022-10-02T19:06:34.810Z,11.67
2022-10-02T19:09:08.022Z,11.65
2022-10-02T19:11:56.828Z,11.61
2022-10-02T19:14:36.889Z,11.64
2022-10-02T19:17:09.686Z,11.62
2022-10-02T19:19:36.988Z,11.60
2022-10-02T19:22:25.825Z,11.47
2022-10-02T19:24:58.928Z,11.38
2022-10-02T19:27:32.395Z,11.37
2022-10-02T19:30:26.230Z,11.39
2022-10-02T19:33:01.527Z,11.39
2022-10-02T19:35:47.140Z,11.36
2022-10-02T19:38:14.147Z,11.33
2022-10-02T19:40:41.673Z,11.29
2022-10-02T19:43:28.258Z,11.27
2022-10-02T19:45:58.500Z,11.27
2022-10-02T19:48:28.176Z,11.25
2022-10-02T19:51:08.004Z,11.22
2022-10-02T19:53:41.483Z,11.24
2022-10-02T19:56:14.859Z,11.18
2022-10-02T19:58:50.522Z,11.15
2022-10-02T20:01:24.230Z,11.06
2022-10-02T20:03:59.782Z,10.99
2022-10-02T20:06:32.602Z,10.99
2022-10-02T20:09:07.341Z,10.99
2022-10-02T20:11:41.729Z,10.97
2022-10-02T20:14:19.503Z,10.93
2022-10-02T20:17:05.423Z,10.80
2022-10-02T20:19:36.869Z,10.86
2022-10-02T20:22:16.510Z,10.83
2022-10-02T20:24:56.390Z,10.81
2022-10-02T20:27:38.005Z,10.82
2022-10-02T20:30:15.322Z,10.80
2022-10-02T20:32:58.198Z,10.74
2022-10-02T20:35:34.830Z,10.69
2022-10-02T20:38:10.824Z,10.64
2022-10-02T20:40:48.275Z,10.58
2022-10-02T20:43:25.582Z,10.52
2022-10-02T20:46:22.565Z,10.42
2022-10-02T20:49:08.432Z,10.40
2022-10-02T20:52:10.090Z,10.34
2022-10-02T20:54:42.932Z,10.27
2022-10-02T20:57:56.468Z,10.20
2022-10-02T21:00:25.023Z,10.10
2022-10-02T21:03:13.447Z,10.10
2022-10-02T21:06:35.735Z,10.13
2022-10-02T21:09:28.174Z,10.11
2022-10-02T21:12:25.762Z,10.07
2022-10-02T21:15:14.201Z,10.02
2022-10-02T21:18:04.668Z,10.01
2022-10-02T21:20:55.447Z,9.99
2022-10-02T21:23:51.346Z,9.97
2022-10-02T21:26:43.919Z,10.05
2022-10-02T21:29:24.095Z,10.04
2022-10-02T21:32:04.472Z,10.08
2022-10-02T21:34:54.183Z,10.06
2022-10-02T21:37:35.497Z,10.05
2022-10-02T21:40:17.834Z,9.99
2022-10-02T21:43:05.080Z,10.00
2022-10-02T21:46:05.638Z,10.00
2022-10-02T21:48:39.237Z,10.01
2022-10-02T21:51:34.083Z,10.05
2022-10-02T21:54:12.939Z,10.02
2022-10-02T21:57:04.662Z,10.01
2022-10-02T22:00:11.018Z,10.00
2022-10-02T22:02:59.102Z,10.07
2022-10-02T22:06:05.301Z,10.13
2022-10-02T22:08:50.598Z,10.06
2022-10-02T22:11:24.000Z,10.11
2022-10-02T22:13:58.553Z,10.07
2022-10-02T22:16:47.679Z,10.13
2022-10-02T22:19:34.646Z,10.18
2022-10-02T22:22:27.887Z,10.15
2022-10-02T22:25:25.956Z,10.21
2022-10-02T22:28:32.529Z,10.27
2022-10-02T22:31:08.682Z,10.20
2022-10-02T22:33:54.966Z,10.19
2022-10-02T22:36:51.485Z,10.16
2022-10-02T22:39:24.395Z,10.09
2022-10-02T22:42:04.975Z,10.08
2022-10-02T22:44:52.842Z,10.02
2022-10-02T22:47:37.852Z,9.96
2022-10-02T22:50:20.308Z,9.89
2022-10-02T22:52:58.560Z,9.82
2022-10-02T22:55:29.820Z,9.76
2022-10-02T22:58:02.462Z,9.72
2022-10-02T23:00:51.595Z,9.64
2022-10-02T23:03:31.310Z,9.61
2022-10-02T23:06:25.390Z,9.56
2022-10-02T23:08:59.220Z,9.52
2022-10-02T23:11:49.101Z,9.50
2022-10-02T23:14:24.835Z,9.39
2022-10-02T23:17:17.118Z,9.42
2022-10-02T23:19:49.511Z,9.32
2022-10-02T23:22:29.058Z,9.23
2022-10-02T23:25:15.500Z,9.18
2022-10-02T23:27:45.561Z,9.14
2022-10-02T23:30:19.243Z,9.12
2022-10-02T23:32:57.778Z,9.11
2022-10-02T23:35:48.132Z,9.16
2022-10-02T23:38:16.942Z,9.19
2022-10-02T23:41:26.791Z,9.17
2022-10-02T23:43:59.555Z,9.17
2022-10-02T23:46:33.430Z,9.21
2022-10-02T23:49:05.354Z,9.23
2022-10-02T23:51:58.601Z,9.22
2022-10-02T23:54:43.880Z,9.19
2022-10-02T23:57:29.459Z,9.19
